Spirit Of New York — WCW9332 — position and weather

sailwx.info

Track history (hours):
 
Tides and Currents Weather Stations Pressure Air Temp Water Temp Dewpoint Dewpoint Depression Visibility Wind Speed Wind Dir Waves Ship Positions

Spirit Of New York

Owner: SPIRIT CRUISES LLC, NEW YORK, NY. More information available from US FCC via Universal Licensing System and Coast Guard Vessel Documentation Center.

Last reported at 2016-Jul-30 16:33 UTC. Time now 2016-Jul-30 16:50 UTC.
Position N 40°42' W 074°01'.

Length 62 m.

Type: Passenger vessel. MMSI: 338897000.

Date/timePositionNaut miles runAvg speedWind from/ knotsBaromVisibWave heightAir tempDewpointWater temp
2016-Jul-30 16:33N 40°42' W 074°01'3 3.0
2016-Jul-30 15:33N 40°45' W 074°01'1 0.1
2016-Jul-30 06:33N 40°44' W 074°01'2 2.3
2016-Jul-30 05:33N 40°42' W 074°01'3 3.2
2016-Jul-30 04:33N 40°45' W 074°01'0 0.0
2016-Jul-30 03:33N 40°45' W 074°01'0 0.0
2016-Jul-30 02:33N 40°45' W 074°01'0 0.0
2016-Jul-30 01:33N 40°45' W 074°01'4 3.8
2016-Jul-30 00:33N 40°41' W 074°02'3 0.4
2016-Jul-29 17:33N 40°44' W 074°01'2 2.3
2016-Jul-29 16:33N 40°42' W 074°01'3 3.1
2016-Jul-29 15:33N 40°45' W 074°01'0 0.0
2016-Jul-29 14:33N 40°45' W 074°01'0 0.0
2016-Jul-29 13:34N 40°45' W 074°01'0 0.0
2016-Jul-29 01:33N 40°45' W 074°01'3 3.0
2016-Jul-29 00:33N 40°42' W 074°00'4 3.9
2016-Jul-28 23:33N 40°46' W 074°01'1 0.9
2016-Jul-28 22:33N 40°45' W 074°01'0 0.0
2016-Jul-28 21:33N 40°45' W 074°01'0 0.0
2016-Jul-28 20:33N 40°45' W 074°01'0 0.0
2016-Jul-28 19:33N 40°45' W 074°01'0 0.0
2016-Jul-28 18:33N 40°45' W 074°01'1 0.7
2016-Jul-28 17:33N 40°44' W 074°01'2 2.4
2016-Jul-28 16:33N 40°42' W 074°01'3 0.2
2016-Jul-28 01:29N 40°45' W 074°01'4 4.4
2016-Jul-28 00:33N 40°41' W 074°03'4 4.2
2016-Jul-27 23:33N 40°45' W 074°01'0 0.5
2016-Jul-27 22:33N 40°45' W 074°01'0 0.0
2016-Jul-27 19:10N 40°45' W 074°01'1 1.3
2016-Jul-27 18:34N 40°46' W 074°01'1 1.2
2016-Jul-27 17:33N 40°44' W 074°01'1 0.6
2016-Jul-27 16:34N 40°45' W 074°01'1 0.7
2016-Jul-27 15:33N 40°46' W 074°01'0 0.0
2016-Jul-27 14:33N 40°46' W 074°01'1 0.1
2016-Jul-27 01:33N 40°45' W 074°01'4 3.7
2016-Jul-27 00:33N 40°41' W 074°02'1 1.2
2016-Jul-26 23:33N 40°42' W 074°01'3 0.3
2016-Jul-26 14:17N 40°45' W 074°01'0 0.2
2016-Jul-26 13:34N 40°45' W 074°01'0 0.0
2016-Jul-26 01:33N 40°45' W 074°01'4 4.0
2016-Jul-26 00:33N 40°41' W 074°03'3 3.0
2016-Jul-25 23:33N 40°44' W 074°01'1 1.0
2016-Jul-25 22:34N 40°45' W 074°01'0 0.0
2016-Jul-25 21:33N 40°45' W 074°01'0 0.0
2016-Jul-25 20:33N 40°45' W 074°01'0 0.0
2016-Jul-25 19:33N 40°45' W 074°01'0 0.0
2016-Jul-25 18:33N 40°45' W 074°01'3 3.3
2016-Jul-25 17:33N 40°42' W 074°02'1 1.4
2016-Jul-25 16:33N 40°43' W 074°01'2 1.9
2016-Jul-25 15:33N 40°45' W 074°01'0 0.0
2016-Jul-25 14:33N 40°45' W 074°01'0 0.0
2016-Jul-25 01:30N 40°45' W 074°01'4 3.9
2016-Jul-25 00:34N 40°41' W 074°02'2 1.9
2016-Jul-24 23:34N 40°43' W 074°01'2 1.7
2016-Jul-24 22:34N 40°45' W 074°01'0 0.0
2016-Jul-24 21:34N 40°45' W 074°01'0 0.0
2016-Jul-24 18:14N 40°45' W 074°01'0 0.7
2016-Jul-24 17:33N 40°45' W 074°01'3 2.9
2016-Jul-24 16:33N 40°42' W 074°01'3 0.4
2016-Jul-24 08:31N 40°45' W 074°01'4 3.8
2016-Jul-24 07:33N 40°41' W 074°02'2 2.5
2016-Jul-24 06:33N 40°42' W 073°59'3 2.8
2016-Jul-24 05:33N 40°45' W 074°01'0 0.2
2016-Jul-24 04:33N 40°45' W 074°01'0 0.0
2016-Jul-24 03:33N 40°45' W 074°01'0 0.0
2016-Jul-24 02:33N 40°45' W 074°01'1 0.7
2016-Jul-24 01:33N 40°44' W 074°01'2 2.5
2016-Jul-24 00:33N 40°42' W 074°01'3 3.2
2016-Jul-23 23:33N 40°45' W 074°01'0 0.2
2016-Jul-23 22:33N 40°45' W 074°01'0 0.0
2016-Jul-23 21:33N 40°45' W 074°01'0 0.0
2016-Jul-23 20:33N 40°45' W 074°01'0 0.0
2016-Jul-23 19:33N 40°45' W 074°01'0 0.0
2016-Jul-23 18:33N 40°45' W 074°01'1 0.8
2016-Jul-23 17:33N 40°44' W 074°01'2 2.0
2016-Jul-23 16:33N 40°42' W 074°01'3 2.8
2016-Jul-23 15:33N 40°45' W 074°01'0 0.0
2016-Jul-23 14:33N 40°45' W 074°01'0 0.0
2016-Jul-23 13:33N 40°45' W 074°01'1 0.1
2016-Jul-23 06:33N 40°44' W 074°01'0 0.2
2016-Jul-23 04:34N 40°44' W 074°01'1 1.2
2016-Jul-23 03:34N 40°45' W 074°01'0 0.0
2016-Jul-23 02:33N 40°45' W 074°01'0 0.0
2016-Jul-23 01:34N 40°45' W 074°01'4 4.0
2016-Jul-23 00:34N 40°41' W 074°03'4 4.3
2016-Jul-22 23:34N 40°45' W 074°01'0 0.4
2016-Jul-22 22:34N 40°45' W 074°01'0 0.0
2016-Jul-22 21:34N 40°45' W 074°01'0 0.0
2016-Jul-22 20:33N 40°45' W 074°01'0 0.0
2016-Jul-22 19:34N 40°45' W 074°01'0 0.0
2016-Jul-22 18:34N 40°45' W 074°01'0 0.5
2016-Jul-22 17:34N 40°44' W 074°01'3 2.6
2016-Jul-22 16:34N 40°42' W 074°01'3 3.0
2016-Jul-22 15:34N 40°45' W 074°01'0 0.0
2016-Jul-22 01:34N 40°45' W 074°01'3 3.4
2016-Jul-22 00:34N 40°42' W 074°02'4 3.7
2016-Jul-21 23:34N 40°45' W 074°01'1 0.2
2016-Jul-21 17:33N 40°44' W 074°01'2 2.4
2016-Jul-21 16:33N 40°42' W 074°01'3 0.2
2016-Jul-21 01:34N 40°45' W 074°01'3 3.1
2016-Jul-21 00:33N 40°42' W 074°01'4 3.6
2016-Jul-20 23:33N 40°45' W 074°01'0 0.1
2016-Jul-20 19:13N 40°45' W 074°01'1 1.2
2016-Jul-20 18:33N 40°46' W 074°01'1 1.0
2016-Jul-20 17:33N 40°45' W 074°01'2 1.7
2016-Jul-20 16:33N 40°43' W 074°01'  
Track history (hours):
 
Tides and Currents Weather Stations Pressure Air Temp Water Temp Dewpoint Dewpoint Depression Visibility Wind Speed Wind Dir Waves Ship Positions

Spirit Of New York

Owner: SPIRIT CRUISES LLC, NEW YORK, NY. More information available from US FCC via Universal Licensing System and Coast Guard Vessel Documentation Center.

Last reported at 2016-Jul-30 16:33 UTC. Time now 2016-Jul-30 16:50 UTC.
Position N 40°42' W 074°01'.

Length 62 m.

Type: Passenger vessel. MMSI: 338897000.

Date/timePositionNaut miles runAvg speedWind from/ knotsBaromVisibWave heightAir tempDewpointWater temp
2016-Jul-30 16:33N 40°42' W 074°01'3 3.0
2016-Jul-30 15:33N 40°45' W 074°01'1 0.1
2016-Jul-30 06:33N 40°44' W 074°01'2 2.3
2016-Jul-30 05:33N 40°42' W 074°01'3 3.2
2016-Jul-30 04:33N 40°45' W 074°01'0 0.0
2016-Jul-30 03:33N 40°45' W 074°01'0 0.0
2016-Jul-30 02:33N 40°45' W 074°01'0 0.0
2016-Jul-30 01:33N 40°45' W 074°01'4 3.8
2016-Jul-30 00:33N 40°41' W 074°02'3 0.4
2016-Jul-29 17:33N 40°44' W 074°01'2 2.3
2016-Jul-29 16:33N 40°42' W 074°01'3 3.1
2016-Jul-29 15:33N 40°45' W 074°01'0 0.0
2016-Jul-29 14:33N 40°45' W 074°01'0 0.0
2016-Jul-29 13:34N 40°45' W 074°01'0 0.0
2016-Jul-29 01:33N 40°45' W 074°01'3 3.0
2016-Jul-29 00:33N 40°42' W 074°00'4 3.9
2016-Jul-28 23:33N 40°46' W 074°01'1 0.9
2016-Jul-28 22:33N 40°45' W 074°01'0 0.0
2016-Jul-28 21:33N 40°45' W 074°01'0 0.0
2016-Jul-28 20:33N 40°45' W 074°01'0 0.0
2016-Jul-28 19:33N 40°45' W 074°01'0 0.0
2016-Jul-28 18:33N 40°45' W 074°01'1 0.7
2016-Jul-28 17:33N 40°44' W 074°01'2 2.4
2016-Jul-28 16:33N 40°42' W 074°01'3 0.2
2016-Jul-28 01:29N 40°45' W 074°01'4 4.4
2016-Jul-28 00:33N 40°41' W 074°03'4 4.2
2016-Jul-27 23:33N 40°45' W 074°01'0 0.5
2016-Jul-27 22:33N 40°45' W 074°01'0 0.0
2016-Jul-27 19:10N 40°45' W 074°01'1 1.3
2016-Jul-27 18:34N 40°46' W 074°01'1 1.2
2016-Jul-27 17:33N 40°44' W 074°01'1 0.6
2016-Jul-27 16:34N 40°45' W 074°01'1 0.7
2016-Jul-27 15:33N 40°46' W 074°01'0 0.0
2016-Jul-27 14:33N 40°46' W 074°01'1 0.1
2016-Jul-27 01:33N 40°45' W 074°01'4 3.7
2016-Jul-27 00:33N 40°41' W 074°02'1 1.2
2016-Jul-26 23:33N 40°42' W 074°01'3 0.3
2016-Jul-26 14:17N 40°45' W 074°01'0 0.2
2016-Jul-26 13:34N 40°45' W 074°01'0 0.0
2016-Jul-26 01:33N 40°45' W 074°01'4 4.0
2016-Jul-26 00:33N 40°41' W 074°03'3 3.0
2016-Jul-25 23:33N 40°44' W 074°01'1 1.0
2016-Jul-25 22:34N 40°45' W 074°01'0 0.0
2016-Jul-25 21:33N 40°45' W 074°01'0 0.0
2016-Jul-25 20:33N 40°45' W 074°01'0 0.0
2016-Jul-25 19:33N 40°45' W 074°01'0 0.0
2016-Jul-25 18:33N 40°45' W 074°01'3 3.3
2016-Jul-25 17:33N 40°42' W 074°02'1 1.4
2016-Jul-25 16:33N 40°43' W 074°01'2 1.9
2016-Jul-25 15:33N 40°45' W 074°01'0 0.0
2016-Jul-25 14:33N 40°45' W 074°01'0 0.0
2016-Jul-25 01:30N 40°45' W 074°01'4 3.9
2016-Jul-25 00:34N 40°41' W 074°02'2 1.9
2016-Jul-24 23:34N 40°43' W 074°01'2 1.7
2016-Jul-24 22:34N 40°45' W 074°01'0 0.0
2016-Jul-24 21:34N 40°45' W 074°01'0 0.0
2016-Jul-24 18:14N 40°45' W 074°01'0 0.7
2016-Jul-24 17:33N 40°45' W 074°01'3 2.9
2016-Jul-24 16:33N 40°42' W 074°01'3 0.4
2016-Jul-24 08:31N 40°45' W 074°01'4 3.8
2016-Jul-24 07:33N 40°41' W 074°02'2 2.5
2016-Jul-24 06:33N 40°42' W 073°59'3 2.8
2016-Jul-24 05:33N 40°45' W 074°01'0 0.2
2016-Jul-24 04:33N 40°45' W 074°01'0 0.0
2016-Jul-24 03:33N 40°45' W 074°01'0 0.0
2016-Jul-24 02:33N 40°45' W 074°01'1 0.7
2016-Jul-24 01:33N 40°44' W 074°01'2 2.5
2016-Jul-24 00:33N 40°42' W 074°01'3 3.2
2016-Jul-23 23:33N 40°45' W 074°01'0 0.2
2016-Jul-23 22:33N 40°45' W 074°01'0 0.0
2016-Jul-23 21:33N 40°45' W 074°01'0 0.0
2016-Jul-23 20:33N 40°45' W 074°01'0 0.0
2016-Jul-23 19:33N 40°45' W 074°01'0 0.0
2016-Jul-23 18:33N 40°45' W 074°01'1 0.8
2016-Jul-23 17:33N 40°44' W 074°01'2 2.0
2016-Jul-23 16:33N 40°42' W 074°01'3 2.8
2016-Jul-23 15:33N 40°45' W 074°01'0 0.0
2016-Jul-23 14:33N 40°45' W 074°01'0 0.0
2016-Jul-23 13:33N 40°45' W 074°01'1 0.1
2016-Jul-23 06:33N 40°44' W 074°01'0 0.2
2016-Jul-23 04:34N 40°44' W 074°01'1 1.2
2016-Jul-23 03:34N 40°45' W 074°01'0 0.0
2016-Jul-23 02:33N 40°45' W 074°01'0 0.0
2016-Jul-23 01:34N 40°45' W 074°01'4 4.0
2016-Jul-23 00:34N 40°41' W 074°03'4 4.3
2016-Jul-22 23:34N 40°45' W 074°01'0 0.4
2016-Jul-22 22:34N 40°45' W 074°01'0 0.0
2016-Jul-22 21:34N 40°45' W 074°01'0 0.0
2016-Jul-22 20:33N 40°45' W 074°01'0 0.0
2016-Jul-22 19:34N 40°45' W 074°01'0 0.0
2016-Jul-22 18:34N 40°45' W 074°01'0 0.5
2016-Jul-22 17:34N 40°44' W 074°01'3 2.6
2016-Jul-22 16:34N 40°42' W 074°01'3 3.0
2016-Jul-22 15:34N 40°45' W 074°01'0 0.0
2016-Jul-22 01:34N 40°45' W 074°01'3 3.4
2016-Jul-22 00:34N 40°42' W 074°02'4 3.7
2016-Jul-21 23:34N 40°45' W 074°01'1 0.2
2016-Jul-21 17:33N 40°44' W 074°01'2 2.4
2016-Jul-21 16:33N 40°42' W 074°01'3 0.2
2016-Jul-21 01:34N 40°45' W 074°01'3 3.1
2016-Jul-21 00:33N 40°42' W 074°01'4 3.6
2016-Jul-20 23:33N 40°45' W 074°01'0 0.1
2016-Jul-20 19:13N 40°45' W 074°01'1 1.2
2016-Jul-20 18:33N 40°46' W 074°01'1 1.0
2016-Jul-20 17:33N 40°45' W 074°01'2 1.7
2016-Jul-20 16:33N 40°43' W 074°01'  

Dump ship's entire track history